| Date | Time | Temp. (oF) | Dew Point (oF) | Rel. Hum. (%) | Press. (in.) | Wind Dir. | Wind Speed (mph) | Hourly Rainfall (in.) |
|
|---|---|---|---|---|---|---|---|---|---|
| 1 | 05/18 | 00:00 | 58 | 55 | 90 | 29.53 | SSW | 0 | 0.00 |
| 2 | 05/17 | 23:00 | 59 | 54 | 86 | 29.55 | W | 0 | 0.00 |
| 3 | 05/17 | 22:00 | 60 | 53 | 79 | 29.56 | SW | 2 | 0.01 |
| 4 | 05/17 | 21:00 | 68 | 48 | 50 | 29.48 | SW | 10 | 0.00 |
| 5 | 05/17 | 20:00 | 70 | 48 | 46 | 29.48 | SW | 5 | 0.00 |
| 6 | 05/17 | 19:00 | 70 | 47 | 45 | 29.47 | SSW | 11 | 0.00 |
| 7 | 05/17 | 18:00 | 72 | 47 | 42 | 29.46 | WSW | 6 | 0.00 |
| 8 | 05/17 | 17:00 | 70 | 47 | 45 | 29.49 | SW | 8 | 0.00 |
| 9 | 05/17 | 16:00 | 71 | 47 | 44 | 29.51 | NW | 7 | 0.00 |
| 10 | 05/17 | 15:00 | 70 | 49 | 49 | 29.54 | SSW | 9 | 0.00 |
| 11 | 05/17 | 14:00 | 70 | 49 | 48 | 29.56 | SW | 10 | 0.00 |
| 12 | 05/17 | 13:00 | 68 | 46 | 47 | 29.58 | SSW | 3 | 0.00 |
| 13 | 05/17 | 12:00 | 64 | 49 | 59 | 29.60 | SSW | 7 | 0.00 |
| 14 | 05/17 | 11:00 | 65 | 49 | 57 | 29.63 | WNW | 7 | 0.00 |
| 15 | 05/17 | 10:00 | 62 | 50 | 65 | 29.65 | WNW | 5 | 0.00 |
| 16 | 05/17 | 09:00 | 58 | 47 | 68 | 29.66 | WNW | 6 | 0.00 |
| 17 | 05/17 | 08:00 | 53 | 48 | 84 | 29.67 | W | 1 | 0.00 |
| 18 | 05/17 | 07:00 | 47 | 46 | 97 | 29.68 | NNW | 2 | 0.00 |
| 19 | 05/17 | 06:00 | 46 | 45 | 97 | 29.67 | W | 3 | 0.00 |
| 20 | 05/17 | 05:00 | 46 | 45 | 99 | 29.67 | WNW | 2 | 0.00 |
| 21 | 05/17 | 04:00 | 46 | 45 | 97 | 29.67 | WNW | 2 | 0.00 |
| 22 | 05/17 | 03:00 | 48 | 46 | 94 | 29.68 | WNW | 2 | 0.00 |
| 23 | 05/17 | 02:00 | 49 | 47 | 93 | 29.69 | WNW | 2 | 0.00 |
| 24 | 05/17 | 01:00 | 51 | 49 | 94 | 29.69 | N | 4 | 0.01 |